Latest Weather Observations for Cape Moreton

IDQ60801

Issued at 5:05 pm EST Monday 21 April 2014 (issued every 30 minutes, with the page automatically refreshed every 10 minutes)

About weather observations | Map of weather stations | Latest weather observations for QLD | Other Formats
Station Details ID: 040043 Name: CAPE MORETON LIGHTHOUSE Lat: -27.03 Lon: 153.47 Height: 99.9 m
Data from the previous 72 hours. | See also: Recent months at Cape Moreton
Date/Time
EST
Temp
°C
App
Temp
°C
Dew
Point
Rel
Hum
%
Delta-T
°C
Wind Press
QNH
hPa
Press
MSL
hPa
Rain
since 9 am
mm
Dir
 
Spd
km/h
Gust
km/h
Spd
kts
Gust
kts
21/05:00pm 23.0 21.8 17.0 69 3.7 NNE 19 20 10 11 1019.6 - -
21/04:30pm 23.4 22.4 16.7 66 4.1 NNE 17 20 9 11 1019.3 - -
21/04:00pm 24.0 22.9 16.3 62 4.7 NNE 17 20 9 11 1019.2 - -
21/03:30pm 24.6 24.4 16.6 61 4.9 N 13 19 7 10 1019.1 - -
21/03:00pm 25.6 25.6 17.3 60 5.2 N 13 19 7 10 1019.1 1018.7 -
21/02:30pm 24.9 24.5 16.3 59 5.3 N 13 17 7 9 1019.2 - -
21/02:00pm 25.2 25.3 16.6 59 5.3 N 11 17 6 9 1019.4 - -
21/01:30pm 24.8 24.9 16.5 60 5.1 NNW 11 15 6 8 1019.6 - -
21/01:00pm 25.0 25.0 17.2 62 4.9 NNW 13 15 7 8 1019.8 - -
21/12:30pm 24.1 23.3 16.1 61 4.9 NNW 15 19 8 10 1020.1 - -
21/12:00pm 24.7 24.2 15.9 58 5.4 NNW 13 19 7 10 1020.4 1020.0 -
21/11:30am 24.9 24.0 15.8 57 5.5 NW 15 19 8 10 1020.8 - -
21/11:00am 24.6 23.8 16.1 59 5.2 NW 15 20 8 11 1021.1 - -
21/10:30am 24.6 24.4 16.6 61 4.9 NW 13 17 7 9 1021.4 - -
21/10:00am 24.3 24.1 16.6 62 4.7 W 13 19 7 10 1021.5 - -
21/09:30am 23.7 23.0 16.5 64 4.4 W 15 20 8 11 1021.6 - -
21/09:00am 23.3 22.5 15.1 60 4.9 WNW 13 17 7 9 1021.6 1021.2 -
21/08:30am 23.3 23.4 16.4 65 4.2 W 11 15 6 8 1021.4 - -
21/08:00am 22.6 23.3 17.1 71 3.4 W 9 15 5 8 1021.4 - -
21/07:30am 21.8 22.3 17.4 76 2.7 W 11 15 6 8 1021.1 - -
21/07:00am 20.9 20.7 17.7 82 2.0 W 15 17 8 9 1020.7 - -
21/06:30am 20.4 20.1 18.2 87 1.4 W 17 19 9 10 1020.3 - -
21/06:00am 20.8 20.8 18.0 84 1.7 W 15 17 8 9 1020.0 1019.6 -
21/05:30am 22.1 22.0 17.0 73 3.1 NW 13 17 7 9 1019.6 - -
21/05:00am 22.6 21.0 15.9 66 4.1 N 19 22 10 12 1019.4 - -
21/04:30am 22.6 21.3 15.9 66 4.1 NNW 17 24 9 13 1019.1 - -
21/04:00am 22.7 21.3 15.5 64 4.3 N 17 22 9 12 1018.8 - -
21/03:30am 22.8 20.8 15.6 64 4.3 N 20 24 11 13 1018.5 - -
21/03:00am 22.7 20.3 15.5 64 4.3 N 22 28 12 15 1018.5 1018.1 -
21/02:30am 22.8 21.0 15.9 65 4.2 N 20 26 11 14 1018.5 - -
21/02:00am 22.8 20.1 15.6 64 4.3 N 24 28 13 15 1018.5 - -
21/01:30am 22.9 20.3 16.0 65 4.2 N 24 30 13 16 1018.6 - -
21/01:00am 23.0 20.9 16.1 65 4.2 N 22 28 12 15 1018.8 - -
21/12:30am 23.0 20.3 15.6 63 4.5 N 24 28 13 15 1019.0 - -
21/12:00am 23.0 20.7 15.6 63 4.5 N 22 30 12 16 1019.1 1018.7 -
 
Date/Time
EST
Temp
°C
App
Temp
°C
Dew
Point
Rel
Hum
%
Delta-T
°C
Wind Press
QNH
hPa
Press
MSL
hPa
Rain
since 9 am
mm
Dir
 
Spd
km/h
Gust
km/h
Spd
kts
Gust
kts
20/11:30pm 23.1 20.9 15.9 64 4.4 N 22 30 12 16 1019.1 - -
20/11:00pm 23.1 20.8 15.7 63 4.5 N 22 28 12 15 1019.1 - -
20/10:30pm 23.1 20.8 15.7 63 4.5 N 22 28 12 15 1019.2 - -
20/10:00pm 23.2 20.3 15.0 60 4.9 N 24 30 13 16 1019.1 - -
20/09:30pm 23.2 20.2 14.7 58 5.1 N 24 30 13 16 1019.1 - -
20/09:00pm 23.1 20.7 15.4 62 4.6 NNE 22 28 12 15 1018.9 1018.5 -
20/08:30pm 23.1 20.4 14.7 59 5.0 NNE 22 28 12 15 1018.8 - -
20/08:00pm 23.1 20.2 14.1 57 5.3 NNE 22 28 12 15 1018.6 - -
20/07:30pm 23.2 20.5 14.7 58 5.1 NE 22 26 12 14 1018.4 - -
20/07:00pm 23.2 20.9 14.7 58 5.1 NE 20 26 11 14 1018.2 - -
20/06:30pm 23.0 20.9 14.6 59 5.0 NE 19 24 10 13 1017.8 - -
20/06:00pm 23.0 20.9 14.6 59 5.0 NE 19 22 10 12 1017.5 1017.1 -
20/05:30pm 23.0 21.3 14.8 60 4.9 NE 17 20 9 11 1017.3 - -
20/05:00pm 23.1 21.5 14.9 60 4.9 NE 17 19 9 10 1017.0 - -
20/04:30pm 23.3 21.7 15.1 60 4.9 ENE 17 20 9 11 1016.7 - -
20/04:00pm 23.6 22.8 15.1 59 5.1 ENE 13 17 7 9 1016.7 - -
20/03:30pm 24.3 23.7 14.7 55 5.7 NE 11 15 6 8 1016.8 - -
20/03:00pm 24.3 23.9 15.2 57 5.5 NE 11 13 6 7 1016.8 1016.4 -
20/02:30pm 25.3 25.4 16.4 57 5.5 NE 11 13 6 7 1016.7 - -
20/02:00pm 25.0 24.5 14.8 53 6.1 N 11 15 6 8 1016.7 - -
20/01:30pm 24.6 24.2 15.2 55 5.7 N 11 13 6 7 1016.8 - -
20/01:00pm 25.0 24.6 15.3 55 5.9 N 11 15 6 8 1017.0 - -
20/12:30pm 25.1 25.0 16.0 57 5.6 N 11 15 6 8 1017.4 - -
20/12:00pm 24.8 24.7 16.0 58 5.4 N 11 13 6 7 1017.6 1017.2 -
20/11:30am 25.7 26.1 16.3 56 5.8 N 9 13 5 7 1018.1 - -
20/11:00am 25.1 25.5 16.3 58 5.4 N 9 13 5 7 1018.5 - -
20/10:30am 24.8 25.3 16.5 60 5.1 N 9 11 5 6 1018.7 - -
20/10:00am 25.0 25.1 15.6 56 5.7 N 9 11 5 6 1018.8 - -
20/09:30am 24.8 25.2 15.4 56 5.7 N 7 11 4 6 1018.7 - -
20/09:00am 24.3 24.7 14.7 55 5.7 N 6 9 3 5 1018.7 1018.3 -
20/08:30am 23.4 24.6 16.0 63 4.5 SW 4 7 2 4 1018.6 - -
20/08:00am 22.8 23.5 15.6 64 4.3 W 6 7 3 4 1018.3 - -
20/07:30am 22.4 22.9 15.0 63 4.4 NW 6 7 3 4 1018.1 - -
20/07:00am 22.4 22.4 15.3 64 4.3 NNW 9 9 5 5 1017.8 - -
20/06:30am 22.1 22.8 15.5 66 4.0 N 6 7 3 4 1017.4 - -
20/06:00am 21.8 22.2 15.4 67 3.8 NE 7 7 4 4 1017.1 1016.7 -
20/05:30am 21.3 23.1 15.6 70 3.4 CALM 0 0 0 0 1016.8 - -
20/05:00am 20.4 20.7 16.0 76 2.6 W 9 13 5 7 1016.5 - -
20/04:30am 20.6 20.6 15.2 71 3.2 W 9 15 5 8 1016.3 - -
20/04:00am 21.8 21.2 14.7 64 4.2 NNE 11 15 6 8 1016.0 - -
20/03:30am 22.1 21.3 15.2 65 4.1 ENE 13 15 7 8 1015.8 - -
20/03:00am 22.1 21.1 14.5 62 4.5 ENE 13 17 7 9 1015.8 1015.3 -
20/02:30am 22.2 21.2 14.6 62 4.5 ENE 13 15 7 8 1016.0 - -
20/02:00am 22.2 21.1 14.3 61 4.6 ENE 13 17 7 9 1016.1 - -
20/01:30am 22.1 21.3 14.0 60 4.7 ENE 11 15 6 8 1016.2 - -
20/01:00am 22.3 21.4 13.6 58 5.1 ENE 11 15 6 8 1016.4 - -
20/12:30am 22.2 21.2 13.3 57 5.1 NE 11 13 6 7 1016.7 - -
20/12:00am 22.2 21.2 13.5 57 5.0 NE 11 15 6 8 1016.8 1016.4 -
 
Date/Time
EST
Temp
°C
App
Temp
°C
Dew
Point
Rel
Hum
%
Delta-T
°C
Wind Press
QNH
hPa
Press
MSL
hPa
Rain
since 9 am
mm
Dir
 
Spd
km/h
Gust
km/h
Spd
kts
Gust
kts
19/11:30pm 22.3 21.4 13.6 58 5.1 ENE 11 15 6 8 1016.8 - -
19/11:00pm 22.4 21.2 14.0 59 4.9 ENE 13 17 7 9 1016.9 - -
19/10:30pm 22.4 20.8 14.0 59 4.9 ENE 15 17 8 9 1016.9 - -
19/10:00pm 22.5 20.7 14.4 60 4.8 E 17 20 9 11 1016.8 - -
19/09:30pm 22.4 20.2 14.3 60 4.8 E 19 20 10 11 1016.7 - -
19/09:00pm 22.6 20.1 13.4 56 5.3 E 19 22 10 12 1016.4 1015.9 -
19/08:30pm 22.6 20.2 13.9 58 5.1 E 19 20 10 11 1016.3 - -
19/08:00pm 22.6 20.1 14.2 59 4.9 E 20 24 11 13 1016.1 - -
19/07:30pm 22.5 20.1 13.8 58 5.1 E 19 20 10 11 1015.9 - -
19/07:00pm 22.6 20.0 13.1 55 5.5 E 19 22 10 12 1015.6 - -
19/06:30pm 22.7 20.1 13.2 55 5.5 ENE 19 22 10 12 1015.0 - -
19/06:00pm 22.7 20.6 13.7 56 5.2 ENE 17 20 9 11 1014.7 1014.2 -
19/05:30pm 22.7 20.7 14.0 58 5.1 ENE 17 19 9 10 1014.5 - -
19/05:00pm 22.9 20.5 12.5 52 6.0 ENE 17 19 9 10 1014.3 - -
19/04:30pm 23.1 20.9 12.1 50 6.3 ENE 15 19 8 10 1014.0 - -
19/04:00pm 23.4 21.4 12.7 51 6.2 ENE 15 19 8 10 1013.9 - -
19/03:30pm 23.8 21.9 14.2 55 5.7 E 17 20 9 11 1013.8 - -
19/03:00pm 24.1 21.6 12.4 48 6.7 ESE 17 19 9 10 1013.9 1013.4 -
19/02:30pm 24.7 22.9 13.3 49 6.7 ESE 15 19 8 10 1014.0 - -
19/02:00pm 25.1 22.6 12.3 45 7.4 SE 17 19 9 10 1014.1 - -
19/01:30pm 25.4 22.2 11.2 41 8.0 SE 19 20 10 11 1014.2 - -
19/01:00pm 25.5 22.1 11.3 41 8.1 SE 20 24 11 13 1014.4 - -
19/12:30pm 25.6 22.7 12.8 45 7.5 SSE 20 26 11 14 1014.9 - -
19/12:00pm 25.4 21.4 10.4 39 8.4 SSE 22 30 12 16 1015.4 1014.9 -
19/11:30am 25.6 22.3 11.0 40 8.2 S 19 24 10 13 1015.9 - -
19/11:00am 25.9 23.6 13.1 45 7.5 SSE 17 22 9 12 1016.3 - -
19/10:30am 26.1 24.9 13.9 47 7.2 SE 13 17 7 9 1016.6 - -
19/10:00am 25.2 24.9 13.4 48 6.9 NW 7 9 4 5 1016.8 - -
19/09:30am 24.8 24.2 14.6 53 6.1 E 11 17 6 9 1016.9 - -
19/09:00am 23.6 23.4 14.6 57 5.3 SSW 9 17 5 9 1017.0 1016.6 -
19/08:30am 22.3 21.7 13.4 57 5.2 SW 9 15 5 8 1017.0 - -
19/08:00am 21.2 20.9 14.4 65 4.0 WSW 9 15 5 8 1016.8 - -
19/07:30am 19.9 19.7 14.7 72 3.0 WSW 9 15 5 8 1016.6 - -
19/07:00am 18.8 17.3 14.3 75 2.6 WSW 15 20 8 11 1016.4 - -
19/06:30am 18.5 15.9 13.1 71 3.1 WSW 19 22 10 12 1016.2 - -
19/06:00am 18.5 16.6 14.2 76 2.5 WSW 17 20 9 11 1016.1 1015.6 -
19/05:30am 18.7 17.1 14.0 74 2.7 W 15 19 8 10 1015.9 - -
19/05:00am 19.1 16.7 13.7 71 3.1 W 19 22 10 12 1015.7 - -
19/04:30am 19.9 17.4 15.1 74 2.8 W 22 28 12 15 1015.5 - -
19/04:00am 20.3 18.9 17.1 82 2.0 W 20 28 11 15 1015.5 - -
19/03:30am 21.1 19.3 17.9 82 2.0 WNW 24 33 13 18 1015.3 - -
19/03:00am 21.5 19.9 18.3 82 2.0 NW 24 35 13 19 1015.5 1015.0 -
19/02:30am 21.8 20.2 18.4 81 2.1 NW 24 32 13 17 1015.6 - -
19/02:00am 21.9 20.4 18.5 81 2.1 NNW 24 32 13 17 1015.7 - -
19/01:30am 21.8 20.4 18.8 83 1.9 NW 24 32 13 17 1015.8 - -
19/01:00am 21.8 20.3 18.6 82 2.0 NW 24 33 13 18 1016.0 - -
19/12:30am 21.9 21.1 18.5 81 2.1 NW 20 28 11 15 1016.2 - -
19/12:00am 22.4 21.1 17.3 73 3.2 NNW 20 28 11 15 1016.3 1015.8 -
 
Date/Time
EST
Temp
°C
App
Temp
°C
Dew
Point
Rel
Hum
%
Delta-T
°C
Wind Press
QNH
hPa
Press
MSL
hPa
Rain
since 9 am
mm
Dir
 
Spd
km/h
Gust
km/h
Spd
kts
Gust
kts
18/11:30pm 22.5 21.4 17.4 73 3.2 NNW 19 26 10 14 1016.5 - -
18/11:00pm 22.5 21.0 17.6 74 3.0 N 22 28 12 15 1016.5 - -
18/10:30pm 22.4 20.9 17.8 75 2.9 N 22 30 12 16 1016.5 - -
18/10:00pm 22.3 21.0 18.1 77 2.6 N 22 30 12 16 1016.5 - -
18/09:30pm 22.4 20.4 17.5 74 3.0 N 24 30 13 16 1016.5 - -
18/09:00pm 22.3 20.4 16.6 70 3.5 N 22 28 12 15 1016.3 1015.8 -
18/08:30pm 22.3 20.6 17.2 73 3.1 N 22 30 12 16 1016.2 - -
18/08:00pm 22.3 20.6 17.2 73 3.1 N 22 28 12 15 1016.0 - -
18/07:30pm 22.3 20.5 17.0 72 3.3 N 22 26 12 14 1015.7 - -
18/07:00pm 22.1 20.7 16.6 71 3.4 NNE 19 22 10 12 1015.3 - -
18/06:30pm 22.0 20.7 16.9 73 3.1 NNE 19 24 10 13 1015.1 - -
18/06:00pm 21.9 20.5 16.6 72 3.2 NE 19 22 10 12 1014.9 1014.4 -
18/05:30pm 21.9 21.0 16.8 73 3.1 NE 17 24 9 13 1014.8 - -

Other Formats:

Comma delimited format used in spreadsheet applications
http://www.bom.gov.au/fwo/IDQ60801/IDQ60801.94594.axf

JavaScript Object Notation format (JSON) in row-major order
http://www.bom.gov.au/fwo/IDQ60801/IDQ60801.94594.json